sensor_id;sensor_type;location;lat;lon;timestamp;pressure;altitude;pressure_sealevel;temperature;humidity
33454;BME280;39400;49.744;7.012;2022-10-31T00:01:21;96452.38;;;12.44;100.00
33454;BME280;39400;49.744;7.012;2022-10-31T00:03:49;96453.16;;;12.41;100.00
33454;BME280;39400;49.744;7.012;2022-10-31T00:06:16;96451.56;;;12.40;100.00
33454;BME280;39400;49.744;7.012;2022-10-31T00:08:47;96453.13;;;12.26;100.00
33454;BME280;39400;49.744;7.012;2022-10-31T00:11:18;96457.81;;;12.11;100.00
33454;BME280;39400;49.744;7.012;2022-10-31T00:13:45;96457.06;;;12.25;100.00
33454;BME280;39400;49.744;7.012;2022-10-31T00:16:19;96464.13;;;12.08;100.00
33454;BME280;39400;49.744;7.012;2022-10-31T00:18:55;96457.03;;;12.14;100.00
33454;BME280;39400;49.744;7.012;2022-10-31T00:21:23;96448.41;;;12.23;100.00
33454;BME280;39400;49.744;7.012;2022-10-31T00:23:50;96451.53;;;12.11;100.00
33454;BME280;39400;49.744;7.012;2022-10-31T00:26:18;96445.25;;;12.21;100.00
33454;BME280;39400;49.744;7.012;2022-10-31T00:28:45;96455.84;;;12.16;100.00
33454;BME280;39400;49.744;7.012;2022-10-31T00:31:13;96442.13;;;12.26;100.00
33454;BME280;39400;49.744;7.012;2022-10-31T00:33:41;96446.44;;;12.38;100.00
33454;BME280;39400;49.744;7.012;2022-10-31T00:36:12;96445.25;;;12.25;100.00
33454;BME280;39400;49.744;7.012;2022-10-31T00:38:41;96440.50;;;12.18;100.00
33454;BME280;39400;49.744;7.012;2022-10-31T00:41:09;96447.59;;;12.12;100.00
33454;BME280;39400;49.744;7.012;2022-10-31T00:43:43;96445.22;;;12.10;100.00
33454;BME280;39400;49.744;7.012;2022-10-31T00:46:12;96442.91;;;12.34;100.00
33454;BME280;39400;49.744;7.012;2022-10-31T00:48:41;96437.38;;;12.30;100.00
33454;BME280;39400;49.744;7.012;2022-10-31T00:51:08;96430.31;;;12.36;100.00
33454;BME280;39400;49.744;7.012;2022-10-31T00:53:36;96425.56;;;12.23;100.00
33454;BME280;39400;49.744;7.012;2022-10-31T00:56:03;96426.72;;;12.40;100.00
33454;BME280;39400;49.744;7.012;2022-10-31T00:58:31;96431.88;;;12.37;100.00
33454;BME280;39400;49.744;7.012;2022-10-31T01:00:58;96433.06;;;12.36;100.00
33454;BME280;39400;49.744;7.012;2022-10-31T01:03:28;96427.94;;;12.46;100.00
33454;BME280;39400;49.744;7.012;2022-10-31T01:06:04;96414.53;;;12.44;100.00
33454;BME280;39400;49.744;7.012;2022-10-31T01:08:33;96416.09;;;12.45;100.00
33454;BME280;39400;49.744;7.012;2022-10-31T01:11:16;96408.25;;;12.44;100.00
33454;BME280;39400;49.744;7.012;2022-10-31T01:13:44;96416.09;;;12.42;100.00
33454;BME280;39400;49.744;7.012;2022-10-31T01:16:14;96421.63;;;12.49;100.00
33454;BME280;39400;49.744;7.012;2022-10-31T01:18:42;96409.00;;;12.55;100.00
33454;BME280;39400;49.744;7.012;2022-10-31T01:21:18;96423.19;;;12.57;100.00
33454;BME280;39400;49.744;7.012;2022-10-31T01:23:48;96419.66;;;12.35;100.00
33454;BME280;39400;49.744;7.012;2022-10-31T01:26:27;96408.25;;;12.51;100.00
33454;BME280;39400;49.744;7.012;2022-10-31T01:29:00;96413.75;;;12.58;100.00
33454;BME280;39400;49.744;7.012;2022-10-31T01:31:30;96400.72;;;12.62;100.00
33454;BME280;39400;49.744;7.012;2022-10-31T01:33:58;96398.34;;;12.60;100.00
33454;BME280;39400;49.744;7.012;2022-10-31T01:36:45;96403.50;;;12.33;100.00
33454;BME280;39400;49.744;7.012;2022-10-31T01:39:15;96398.38;;;12.32;100.00
33454;BME280;39400;49.744;7.012;2022-10-31T01:41:45;96388.53;;;12.20;100.00
33454;BME280;39400;49.744;7.012;2022-10-31T01:46:44;96395.63;;;12.28;100.00
33454;BME280;39400;49.744;7.012;2022-10-31T01:49:17;96396.03;;;12.30;100.00
33454;BME280;39400;49.744;7.012;2022-10-31T01:51:51;96399.16;;;12.07;100.00
33454;BME280;39400;49.744;7.012;2022-10-31T01:54:25;96401.09;;;11.85;100.00
33454;BME280;39400;49.744;7.012;2022-10-31T01:56:55;96399.06;;;11.64;100.00
33454;BME280;39400;49.744;7.012;2022-10-31T01:59:25;96397.88;;;11.69;100.00
33454;BME280;39400;49.744;7.012;2022-10-31T02:01:54;96388.47;;;11.84;100.00
33454;BME280;39400;49.744;7.012;2022-10-31T02:04:22;96393.28;;;12.12;100.00
33454;BME280;39400;49.744;7.012;2022-10-31T02:09:19;96385.00;;;12.30;100.00
33454;BME280;39400;49.744;7.012;2022-10-31T02:11:52;96385.38;;;12.29;100.00
33454;BME280;39400;49.744;7.012;2022-10-31T02:14:22;96388.53;;;12.31;100.00
33454;BME280;39400;49.744;7.012;2022-10-31T02:16:51;96379.47;;;12.23;100.00
33454;BME280;39400;49.744;7.012;2022-10-31T02:19:39;96379.06;;;12.28;100.00
33454;BME280;39400;49.744;7.012;2022-10-31T02:22:21;96378.28;;;12.10;100.00
33454;BME280;39400;49.744;7.012;2022-10-31T02:27:49;96374.34;;;12.25;100.00
33454;BME280;39400;49.744;7.012;2022-10-31T02:30:29;96377.09;;;12.18;100.00
33454;BME280;39400;49.744;7.012;2022-10-31T02:33:08;96373.56;;;12.21;100.00
33454;BME280;39400;49.744;7.012;2022-10-31T02:47:15;96364.09;;;12.29;100.00
33454;BME280;39400;49.744;7.012;2022-10-31T02:49:48;96369.63;;;12.04;100.00
33454;BME280;39400;49.744;7.012;2022-10-31T02:52:26;96366.47;;;12.20;100.00
33454;BME280;39400;49.744;7.012;2022-10-31T02:58:01;96369.63;;;12.08;100.00
33454;BME280;39400;49.744;7.012;2022-10-31T03:06:32;96363.31;;;12.25;100.00
33454;BME280;39400;49.744;7.012;2022-10-31T03:11:38;96360.56;;;12.18;100.00
33454;BME280;39400;49.744;7.012;2022-10-31T03:14:15;96353.88;;;12.30;100.00
33454;BME280;39400;49.744;7.012;2022-10-31T03:16:52;96351.50;;;12.28;100.00
33454;BME280;39400;49.744;7.012;2022-10-31T03:19:28;96349.53;;;12.18;100.00
33454;BME280;39400;49.744;7.012;2022-10-31T03:22:01;96346.00;;;12.14;100.00
33454;BME280;39400;49.744;7.012;2022-10-31T03:24:32;96351.50;;;12.21;100.00
33454;BME280;39400;49.744;7.012;2022-10-31T03:27:01;96355.44;;;12.27;100.00
33454;BME280;39400;49.744;7.012;2022-10-31T03:29:33;96349.16;;;12.27;100.00
33454;BME280;39400;49.744;7.012;2022-10-31T03:32:10;96347.56;;;12.15;100.00
33454;BME280;39400;49.744;7.012;2022-10-31T03:34:41;96346.00;;;12.07;100.00
33454;BME280;39400;49.744;7.012;2022-10-31T03:37:14;96341.69;;;12.13;100.00
33454;BME280;39400;49.744;7.012;2022-10-31T03:39:45;96346.78;;;12.14;100.00
33454;BME280;39400;49.744;7.012;2022-10-31T03:42:28;96347.56;;;12.01;100.00
33454;BME280;39400;49.744;7.012;2022-10-31T03:45:04;96344.44;;;12.13;100.00
33454;BME280;39400;49.744;7.012;2022-10-31T03:47:35;96338.13;;;12.09;100.00
33454;BME280;39400;49.744;7.012;2022-10-31T03:50:06;96327.88;;;12.17;100.00
33454;BME280;39400;49.744;7.012;2022-10-31T03:55:24;96340.47;;;12.21;100.00
33454;BME280;39400;49.744;7.012;2022-10-31T03:57:58;96330.63;;;12.31;100.00
33454;BME280;39400;49.744;7.012;2022-10-31T04:00:27;96344.41;;;12.42;100.00
33454;BME280;39400;49.744;7.012;2022-10-31T04:03:00;96334.56;;;12.41;100.00
33454;BME280;39400;49.744;7.012;2022-10-31T04:05:33;96334.16;;;12.42;100.00
33454;BME280;39400;49.744;7.012;2022-10-31T04:08:04;96338.88;;;12.45;100.00
33454;BME280;39400;49.744;7.012;2022-10-31T04:10:35;96339.66;;;12.46;100.00
33454;BME280;39400;49.744;7.012;2022-10-31T04:13:11;96334.16;;;12.49;100.00
33454;BME280;39400;49.744;7.012;2022-10-31T04:15:45;96331.00;;;12.51;100.00
33454;BME280;39400;49.744;7.012;2022-10-31T04:18:14;96335.34;;;12.52;100.00
33454;BME280;39400;49.744;7.012;2022-10-31T04:20:41;96334.94;;;12.50;100.00
33454;BME280;39400;49.744;7.012;2022-10-31T04:23:22;96342.06;;;12.36;100.00
33454;BME280;39400;49.744;7.012;2022-10-31T04:25:51;96347.56;;;12.26;100.00
33454;BME280;39400;49.744;7.012;2022-10-31T04:28:19;96340.03;;;11.83;100.00
33454;BME280;39400;49.744;7.012;2022-10-31T04:30:46;96346.75;;;11.75;100.00
33454;BME280;39400;49.744;7.012;2022-10-31T04:33:14;96333.41;;;11.99;100.00
33454;BME280;39400;49.744;7.012;2022-10-31T04:35:44;96338.91;;;11.92;100.00
33454;BME280;39400;49.744;7.012;2022-10-31T04:38:11;96333.38;;;11.88;100.00
33454;BME280;39400;49.744;7.012;2022-10-31T04:40:39;96334.19;;;11.96;100.00
33454;BME280;39400;49.744;7.012;2022-10-31T04:43:26;96340.09;;;11.90;100.00
33454;BME280;39400;49.744;7.012;2022-10-31T04:45:54;96330.25;;;11.89;100.00
33454;BME280;39400;49.744;7.012;2022-10-31T04:48:22;96330.22;;;11.75;100.00
33454;BME280;39400;49.744;7.012;2022-10-31T04:50:50;96340.44;;;11.60;100.00
33454;BME280;39400;49.744;7.012;2022-10-31T04:53:17;96328.59;;;11.60;100.00
33454;BME280;39400;49.744;7.012;2022-10-31T04:56:02;96329.00;;;11.55;100.00
33454;BME280;39400;49.744;7.012;2022-10-31T04:58:43;96326.25;;;11.58;100.00
33454;BME280;39400;49.744;7.012;2022-10-31T05:01:10;96320.34;;;11.67;100.00
33454;BME280;39400;49.744;7.012;2022-10-31T05:03:37;96327.03;;;11.66;100.00
33454;BME280;39400;49.744;7.012;2022-10-31T05:06:07;96316.81;;;11.77;100.00
33454;BME280;39400;49.744;7.012;2022-10-31T05:08:35;96305.81;;;11.84;100.00
33454;BME280;39400;49.744;7.012;2022-10-31T05:11:06;96313.66;;;11.61;100.00
33454;BME280;39400;49.744;7.012;2022-10-31T05:13:33;96309.72;;;11.76;100.00
33454;BME280;39400;49.744;7.012;2022-10-31T05:16:12;96314.47;;;11.83;100.00
33454;BME280;39400;49.744;7.012;2022-10-31T05:19:15;96316.06;;;11.84;100.00
33454;BME280;39400;49.744;7.012;2022-10-31T05:22:20;96308.94;;;11.54;100.00
33454;BME280;39400;49.744;7.012;2022-10-31T05:24:47;96302.66;;;11.57;100.00
33454;BME280;39400;49.744;7.012;2022-10-31T05:27:15;96299.13;;;11.64;100.00
33454;BME280;39400;49.744;7.012;2022-10-31T05:29:42;96302.66;;;11.61;100.00
33454;BME280;39400;49.744;7.012;2022-10-31T05:32:09;96297.16;;;11.68;100.00
33454;BME280;39400;49.744;7.012;2022-10-31T05:34:58;96294.75;;;11.63;100.00
33454;BME280;39400;49.744;7.012;2022-10-31T05:37:45;96293.59;;;11.64;100.00
33454;BME280;39400;49.744;7.012;2022-10-31T05:40:14;96293.97;;;11.62;100.00
33454;BME280;39400;49.744;7.012;2022-10-31T05:42:42;96284.53;;;11.53;100.00
33454;BME280;39400;49.744;7.012;2022-10-31T05:45:16;96286.91;;;11.65;100.00
33454;BME280;39400;49.744;7.012;2022-10-31T05:47:56;96290.03;;;11.60;100.00
33454;BME280;39400;49.744;7.012;2022-10-31T05:50:43;96289.66;;;11.51;100.00
33454;BME280;39400;49.744;7.012;2022-10-31T05:53:11;96287.69;;;11.69;100.00
33454;BME280;39400;49.744;7.012;2022-10-31T05:55:39;96283.75;;;11.63;100.00
33454;BME280;39400;49.744;7.012;2022-10-31T05:58:28;96281.41;;;11.72;100.00
33454;BME280;39400;49.744;7.012;2022-10-31T06:01:03;96282.19;;;11.69;100.00
33454;BME280;39400;49.744;7.012;2022-10-31T06:03:30;96278.25;;;11.77;100.00
33454;BME280;39400;49.744;7.012;2022-10-31T06:05:59;96281.41;;;11.76;100.00
33454;BME280;39400;49.744;7.012;2022-10-31T06:08:32;96284.56;;;11.81;100.00
33454;BME280;39400;49.744;7.012;2022-10-31T06:11:04;96271.94;;;11.73;100.00
33454;BME280;39400;49.744;7.012;2022-10-31T06:13:49;96268.41;;;11.76;100.00
33454;BME280;39400;49.744;7.012;2022-10-31T06:16:24;96265.66;;;11.69;100.00
33454;BME280;39400;49.744;7.012;2022-10-31T06:18:53;96271.94;;;11.45;100.00
33454;BME280;39400;49.744;7.012;2022-10-31T06:21:21;96273.50;;;11.63;100.00
33454;BME280;39400;49.744;7.012;2022-10-31T06:23:50;96277.44;;;11.52;100.00
33454;BME280;39400;49.744;7.012;2022-10-31T06:26:28;96274.31;;;11.64;100.00
33454;BME280;39400;49.744;7.012;2022-10-31T06:28:55;96290.03;;;11.56;100.00
33454;BME280;39400;49.744;7.012;2022-10-31T06:31:55;96284.94;;;11.65;100.00
33454;BME280;39400;49.744;7.012;2022-10-31T06:34:22;96295.59;;;11.74;100.00
33454;BME280;39400;49.744;7.012;2022-10-31T06:36:49;96291.63;;;11.61;100.00
33454;BME280;39400;49.744;7.012;2022-10-31T06:39:19;96282.19;;;11.76;100.00
33454;BME280;39400;49.744;7.012;2022-10-31T06:41:47;96300.28;;;11.70;100.00
33454;BME280;39400;49.744;7.012;2022-10-31T06:44:17;96292.44;;;11.83;100.00
33454;BME280;39400;49.744;7.012;2022-10-31T06:46:54;96301.47;;;11.65;100.00
33454;BME280;39400;49.744;7.012;2022-10-31T06:49:39;96298.72;;;11.73;100.00
33454;BME280;39400;49.744;7.012;2022-10-31T06:52:14;96291.66;;;11.89;100.00
33454;BME280;39400;49.744;7.012;2022-10-31T06:54:41;96301.13;;;12.06;100.00
33454;BME280;39400;49.744;7.012;2022-10-31T06:57:08;96296.00;;;11.94;100.00
33454;BME280;39400;49.744;7.012;2022-10-31T06:59:37;96305.84;;;12.09;100.00
33454;BME280;39400;49.744;7.012;2022-10-31T07:02:34;96302.69;;;12.11;100.00
33454;BME280;39400;49.744;7.012;2022-10-31T07:05:01;96305.84;;;12.20;100.00
33454;BME280;39400;49.744;7.012;2022-10-31T07:07:28;96308.59;;;12.20;100.00
33454;BME280;39400;49.744;7.012;2022-10-31T07:09:55;96305.84;;;12.20;100.00
33454;BME280;39400;49.744;7.012;2022-10-31T07:12:38;96303.06;;;12.34;100.00
33454;BME280;39400;49.744;7.012;2022-10-31T07:15:06;96303.44;;;12.26;100.00
33454;BME280;39400;49.744;7.012;2022-10-31T07:17:33;96310.56;;;12.30;100.00
33454;BME280;39400;49.744;7.012;2022-10-31T07:20:01;96310.53;;;12.37;100.00
33454;BME280;39400;49.744;7.012;2022-10-31T07:22:36;96309.69;;;12.62;100.00
33454;BME280;39400;49.744;7.012;2022-10-31T07:25:05;96310.88;;;12.68;100.00
33454;BME280;39400;49.744;7.012;2022-10-31T07:27:55;96302.56;;;12.75;100.00
33454;BME280;39400;49.744;7.012;2022-10-31T07:30:22;96302.56;;;12.75;100.00
33454;BME280;39400;49.744;7.012;2022-10-31T07:32:53;96310.03;;;12.85;100.00
33454;BME280;39400;49.744;7.012;2022-10-31T07:35:23;96312.38;;;12.87;100.00
33454;BME280;39400;49.744;7.012;2022-10-31T07:37:55;96308.44;;;12.84;100.00
33454;BME280;39400;49.744;7.012;2022-10-31T07:40:24;96311.97;;;12.96;100.00
33454;BME280;39400;49.744;7.012;2022-10-31T07:42:52;96313.53;;;12.97;100.00
33454;BME280;39400;49.744;7.012;2022-10-31T07:45:38;96310.34;;;13.02;100.00
33454;BME280;39400;49.744;7.012;2022-10-31T07:48:25;96310.28;;;13.13;100.00
33454;BME280;39400;49.744;7.012;2022-10-31T07:51:11;96308.72;;;13.12;100.00
33454;BME280;39400;49.744;7.012;2022-10-31T07:54:04;96309.09;;;13.21;100.00
33454;BME280;39400;49.744;7.012;2022-10-31T07:56:31;96312.59;;;13.32;100.00
33454;BME280;39400;49.744;7.012;2022-10-31T07:58:59;96310.22;;;13.38;100.00
33454;BME280;39400;49.744;7.012;2022-10-31T08:01:26;96315.72;;;13.41;100.00
33454;BME280;39400;49.744;7.012;2022-10-31T08:04:14;96307.03;;;13.39;100.00
33454;BME280;39400;49.744;7.012;2022-10-31T08:07:00;96308.59;;;13.40;100.00
33454;BME280;39400;49.744;7.012;2022-10-31T08:09:33;96312.50;;;13.50;100.00
33454;BME280;39400;49.744;7.012;2022-10-31T08:12:05;96314.09;;;13.51;100.00
33454;BME280;39400;49.744;7.012;2022-10-31T08:14:34;96318.03;;;13.46;100.00
33454;BME280;39400;49.744;7.012;2022-10-31T08:17:01;96315.59;;;13.59;100.00
33454;BME280;39400;49.744;7.012;2022-10-31T08:19:39;96313.19;;;13.68;100.00
33454;BME280;39400;49.744;7.012;2022-10-31T08:22:08;96307.66;;;13.68;100.00
33454;BME280;39400;49.744;7.012;2022-10-31T08:24:36;96315.91;;;13.75;100.00
33454;BME280;39400;49.744;7.012;2022-10-31T08:27:08;96309.91;;;13.84;100.00
33454;BME280;39400;49.744;7.012;2022-10-31T08:29:38;96303.16;;;13.89;100.00
33454;BME280;39400;49.744;7.012;2022-10-31T08:32:05;96305.50;;;13.94;100.00
33454;BME280;39400;49.744;7.012;2022-10-31T08:34:51;96299.50;;;14.02;100.00
33454;BME280;39400;49.744;7.012;2022-10-31T08:37:42;96303.81;;;14.07;100.00
33454;BME280;39400;49.744;7.012;2022-10-31T08:40:10;96301.38;;;14.13;100.00
33454;BME280;39400;49.744;7.012;2022-10-31T08:42:37;96298.91;;;14.25;100.00
33454;BME280;39400;49.744;7.012;2022-10-31T08:45:05;96296.84;;;14.33;100.00
33454;BME280;39400;49.744;7.012;2022-10-31T08:47:33;96289.78;;;14.28;100.00
33454;BME280;39400;49.744;7.012;2022-10-31T08:50:00;96294.41;;;14.42;100.00
33454;BME280;39400;49.744;7.012;2022-10-31T08:52:28;96300.78;;;14.36;100.00
33454;BME280;39400;49.744;7.012;2022-10-31T08:55:15;96283.38;;;14.39;100.00
33454;BME280;39400;49.744;7.012;2022-10-31T08:58:02;96284.06;;;14.50;100.00
33454;BME280;39400;49.744;7.012;2022-10-31T09:00:38;96271.38;;;14.56;100.00
33454;BME280;39400;49.744;7.012;2022-10-31T09:03:15;96276.75;;;14.70;100.00
33454;BME280;39400;49.744;7.012;2022-10-31T09:05:43;96274.34;;;14.72;100.00
33454;BME280;39400;49.744;7.012;2022-10-31T09:08:12;96267.16;;;14.79;100.00
33454;BME280;39400;49.744;7.012;2022-10-31T09:10:45;96266.28;;;14.85;100.00
33454;BME280;39400;49.744;7.012;2022-10-31T09:13:20;96257.44;;;14.97;100.00
33454;BME280;39400;49.744;7.012;2022-10-31T09:16:22;96247.03;;;15.05;100.00
33454;BME280;39400;49.744;7.012;2022-10-31T09:18:49;96243.03;;;15.10;100.00
33454;BME280;39400;49.744;7.012;2022-10-31T09:21:16;96249.22;;;15.21;100.00
33454;BME280;39400;49.744;7.012;2022-10-31T09:23:45;96251.13;;;15.28;100.00
33454;BME280;39400;49.744;7.012;2022-10-31T09:26:12;96242.66;;;15.38;100.00
33454;BME280;39400;49.744;7.012;2022-10-31T09:28:43;96253.78;;;15.35;100.00
33454;BME280;39400;49.744;7.012;2022-10-31T09:31:13;96242.09;;;15.47;100.00
33454;BME280;39400;49.744;7.012;2022-10-31T09:33:54;96241.66;;;15.52;100.00
33454;BME280;39400;49.744;7.012;2022-10-31T09:36:45;96235.41;;;15.44;100.00
33454;BME280;39400;49.744;7.012;2022-10-31T09:39:21;96229.72;;;15.55;100.00
33454;BME280;39400;49.744;7.012;2022-10-31T09:43:04;96235.28;;;15.55;100.00
33454;BME280;39400;49.744;7.012;2022-10-31T09:48:32;96234.00;;;15.87;100.00
33454;BME280;39400;49.744;7.012;2022-10-31T09:54:18;96229.91;;;15.95;100.00
33454;BME280;39400;49.744;7.012;2022-10-31T09:56:47;96230.63;;;15.99;100.00
33454;BME280;39400;49.744;7.012;2022-10-31T09:59:28;96237.97;;;16.09;100.00
33454;BME280;39400;49.744;7.012;2022-10-31T10:05:09;96228.97;;;16.25;100.00
33454;BME280;39400;49.744;7.012;2022-10-31T10:07:53;96226.84;;;16.33;100.00
33454;BME280;39400;49.744;7.012;2022-10-31T10:10:54;96225.50;;;16.41;100.00
33454;BME280;39400;49.744;7.012;2022-10-31T10:24:55;96229.81;;;16.46;100.00
33454;BME280;39400;49.744;7.012;2022-10-31T10:27:40;96228.94;;;16.49;100.00
33454;BME280;39400;49.744;7.012;2022-10-31T10:30:23;96220.19;;;16.50;100.00
33454;BME280;39400;49.744;7.012;2022-10-31T10:33:04;96215.00;;;16.52;100.00
33454;BME280;39400;49.744;7.012;2022-10-31T10:35:41;96212.94;;;16.56;100.00
33454;BME280;39400;49.744;7.012;2022-10-31T10:38:15;96234.88;;;16.71;100.00
33454;BME280;39400;49.744;7.012;2022-10-31T10:40:44;96232.44;;;16.73;100.00
33454;BME280;39400;49.744;7.012;2022-10-31T10:43:30;96226.31;;;16.61;100.00
33454;BME280;39400;49.744;7.012;2022-10-31T10:49:12;96201.59;;;16.47;100.00
33454;BME280;39400;49.744;7.012;2022-10-31T10:52:00;96202.69;;;16.53;100.00
33454;BME280;39400;49.744;7.012;2022-10-31T10:55:02;96196.28;;;16.56;100.00
33454;BME280;39400;49.744;7.012;2022-10-31T10:57:56;96193.84;;;16.58;100.00
33454;BME280;39400;49.744;7.012;2022-10-31T11:02:55;96187.59;;;16.54;100.00
33454;BME280;39400;49.744;7.012;2022-10-31T11:08:37;96192.78;;;16.72;100.00
33454;BME280;39400;49.744;7.012;2022-10-31T11:11:15;96198.13;;;16.83;100.00
33454;BME280;39400;49.744;7.012;2022-10-31T11:13:48;96195.03;;;16.81;100.00
33454;BME280;39400;49.744;7.012;2022-10-31T11:21:39;96182.78;;;17.15;99.57
33454;BME280;39400;49.744;7.012;2022-10-31T11:26:41;96178.09;;;17.28;99.72
33454;BME280;39400;49.744;7.012;2022-10-31T11:29:14;96172.06;;;17.49;100.00
33454;BME280;39400;49.744;7.012;2022-10-31T11:31:43;96178.91;;;17.61;97.15
33454;BME280;39400;49.744;7.012;2022-10-31T11:34:33;96171.22;;;17.85;97.08
33454;BME280;39400;49.744;7.012;2022-10-31T11:37:17;96164.31;;;18.06;97.75
33454;BME280;39400;49.744;7.012;2022-10-31T11:39:48;96154.59;;;17.98;95.40
33454;BME280;39400;49.744;7.012;2022-10-31T11:42:26;96143.31;;;18.18;98.56
33454;BME280;39400;49.744;7.012;2022-10-31T11:44:54;96143.50;;;18.11;95.09
33454;BME280;39400;49.744;7.012;2022-10-31T11:47:28;96144.19;;;18.15;92.77
33454;BME280;39400;49.744;7.012;2022-10-31T11:49:57;96138.41;;;18.22;91.68
33454;BME280;39400;49.744;7.012;2022-10-31T11:52:30;96142.78;;;18.23;91.26
33454;BME280;39400;49.744;7.012;2022-10-31T11:55:35;96146.25;;;18.27;93.37
33454;BME280;39400;49.744;7.012;2022-10-31T11:58:03;96140.88;;;18.20;92.97
33454;BME280;39400;49.744;7.012;2022-10-31T12:00:33;96132.72;;;18.13;91.27
33454;BME280;39400;49.744;7.012;2022-10-31T12:06:13;96127.00;;;18.03;90.45
33454;BME280;39400;49.744;7.012;2022-10-31T12:08:42;96114.88;;;17.81;93.18
33454;BME280;39400;49.744;7.012;2022-10-31T12:11:26;96107.75;;;17.80;93.03
33454;BME280;39400;49.744;7.012;2022-10-31T12:17:15;96115.41;;;17.76;93.87
33454;BME280;39400;49.744;7.012;2022-10-31T12:22:52;96114.88;;;17.48;95.35
33454;BME280;39400;49.744;7.012;2022-10-31T12:28:10;96112.28;;;17.41;93.65
33454;BME280;39400;49.744;7.012;2022-10-31T12:42:19;96086.72;;;17.79;95.22
33454;BME280;39400;49.744;7.012;2022-10-31T12:50:22;96080.16;;;17.40;96.32
33454;BME280;39400;49.744;7.012;2022-10-31T12:58:45;96062.25;;;17.25;92.45
33454;BME280;39400;49.744;7.012;2022-10-31T13:01:24;96059.66;;;17.18;94.70
33454;BME280;39400;49.744;7.012;2022-10-31T13:04:12;96056.69;;;17.25;94.42
33454;BME280;39400;49.744;7.012;2022-10-31T13:06:47;96043.16;;;17.27;95.01
33454;BME280;39400;49.744;7.012;2022-10-31T13:09:19;96042.63;;;17.32;94.17
33454;BME280;39400;49.744;7.012;2022-10-31T13:11:53;96045.34;;;17.65;93.58
33454;BME280;39400;49.744;7.012;2022-10-31T13:14:36;96033.06;;;18.08;90.70
33454;BME280;39400;49.744;7.012;2022-10-31T13:17:06;96021.66;;;17.89;88.99
33454;BME280;39400;49.744;7.012;2022-10-31T13:19:41;96018.06;;;18.05;87.76
33454;BME280;39400;49.744;7.012;2022-10-31T13:22:17;96013.53;;;18.24;87.93
33454;BME280;39400;49.744;7.012;2022-10-31T13:30:20;95998.06;;;17.81;86.62
33454;BME280;39400;49.744;7.012;2022-10-31T13:32:52;95976.59;;;17.81;88.05
33454;BME280;39400;49.744;7.012;2022-10-31T13:35:46;95975.06;;;17.93;87.71
33454;BME280;39400;49.744;7.012;2022-10-31T13:38:27;95959.28;;;18.03;85.91
33454;BME280;39400;49.744;7.012;2022-10-31T13:41:01;95951.72;;;18.93;81.05
33454;BME280;39400;49.744;7.012;2022-10-31T13:46:38;96023.16;;;24.29;63.02
33454;BME280;39400;49.744;7.012;2022-10-31T13:54:57;95980.25;;;20.32;74.93
33454;BME280;39400;49.744;7.012;2022-10-31T14:00:21;95977.38;;;18.88;76.96
33454;BME280;39400;49.744;7.012;2022-10-31T14:02:51;95977.03;;;18.47;77.16
33454;BME280;39400;49.744;7.012;2022-10-31T14:05:32;95957.84;;;18.24;78.71
33454;BME280;39400;49.744;7.012;2022-10-31T14:08:02;95955.28;;;18.17;78.62
33454;BME280;39400;49.744;7.012;2022-10-31T14:10:37;95966.25;;;17.82;80.93
33454;BME280;39400;49.744;7.012;2022-10-31T14:13:20;95975.63;;;17.72;79.54
33454;BME280;39400;49.744;7.012;2022-10-31T14:18:39;95952.03;;;17.64;82.80
33454;BME280;39400;49.744;7.012;2022-10-31T14:21:26;95923.63;;;17.56;81.18
33454;BME280;39400;49.744;7.012;2022-10-31T14:23:53;95904.16;;;18.62;76.86
33454;BME280;39400;49.744;7.012;2022-10-31T14:29:02;95895.13;;;19.18;73.66
33454;BME280;39400;49.744;7.012;2022-10-31T14:31:52;95910.44;;;19.13;72.43
33454;BME280;39400;49.744;7.012;2022-10-31T14:34:38;95925.88;;;18.67;75.04
33454;BME280;39400;49.744;7.012;2022-10-31T14:37:32;95920.03;;;18.39;77.23
33454;BME280;39400;49.744;7.012;2022-10-31T14:51:51;95918.78;;;18.27;78.25
33454;BME280;39400;49.744;7.012;2022-10-31T14:54:25;95929.34;;;18.45;78.57
33454;BME280;39400;49.744;7.012;2022-10-31T14:56:58;95933.88;;;19.60;77.08
33454;BME280;39400;49.744;7.012;2022-10-31T14:59:28;95924.47;;;18.75;74.50
33454;BME280;39400;49.744;7.012;2022-10-31T15:02:09;95914.22;;;18.72;75.57
33454;BME280;39400;49.744;7.012;2022-10-31T15:04:38;95911.50;;;19.94;73.58
33454;BME280;39400;49.744;7.012;2022-10-31T15:09:39;95913.66;;;24.49;59.08
33454;BME280;39400;49.744;7.012;2022-10-31T15:14:52;95879.94;;;25.46;55.11
33454;BME280;39400;49.744;7.012;2022-10-31T15:17:20;95878.09;;;24.81;55.69
33454;BME280;39400;49.744;7.012;2022-10-31T15:19:48;95860.06;;;21.59;60.87
33454;BME280;39400;49.744;7.012;2022-10-31T15:22:17;95840.00;;;19.88;68.16
33454;BME280;39400;49.744;7.012;2022-10-31T15:24:45;95848.34;;;18.78;72.29
33454;BME280;39400;49.744;7.012;2022-10-31T15:27:15;95845.22;;;19.77;68.09
33454;BME280;39400;49.744;7.012;2022-10-31T15:29:53;95853.66;;;18.25;70.30
33454;BME280;39400;49.744;7.012;2022-10-31T15:32:23;95872.91;;;17.39;75.77
33454;BME280;39400;49.744;7.012;2022-10-31T15:34:52;95885.97;;;17.26;78.72
33454;BME280;39400;49.744;7.012;2022-10-31T15:37:21;95887.28;;;16.76;84.80
33454;BME280;39400;49.744;7.012;2022-10-31T15:39:51;95879.97;;;16.98;86.56
33454;BME280;39400;49.744;7.012;2022-10-31T15:42:34;95883.03;;;17.17;87.37
33454;BME280;39400;49.744;7.012;2022-10-31T15:45:26;95888.34;;;17.40;88.27
33454;BME280;39400;49.744;7.012;2022-10-31T15:47:57;95888.13;;;16.73;92.03
33454;BME280;39400;49.744;7.012;2022-10-31T15:50:39;95894.84;;;16.75;92.85
33454;BME280;39400;49.744;7.012;2022-10-31T15:53:20;95866.47;;;16.84;90.08
33454;BME280;39400;49.744;7.012;2022-10-31T15:55:54;95888.88;;;16.77;91.47